Terminal Aerodrome Forecast
Issued by NWS

Home | Current Version | Previous Version | Text Only | Print | Product List | Glossary On
Versions: 1 2 3 4 5 6 7 8 9 10 11 12 13
553
FTUS42 TJSJ 222340
TAFJPS
TAF
TJPS 222340Z 2300/2324 07005KT P6SM FEW030 SCT060
     FM230600 VRB05KT P6SM VCTS SCT030CB SCT060
     FM231400 14012G18KT P6SM VCSH SCT030 SCT060
     FM232330 08007KT P6SM FEW030
      AMD NOT SKED TIL 230300=

USA.gov is the U.S. government's official web portal to all federal, state and local government web resources and services.